createdAt,value
2022-12-24T00:01:38.323Z,1.90
2022-12-24T00:04:06.978Z,1.70
2022-12-24T00:06:35.464Z,1.90
2022-12-24T00:09:04.806Z,1.80
2022-12-24T00:11:33.204Z,1.80
2022-12-24T00:14:01.253Z,2.03
2022-12-24T00:16:29.833Z,1.70
2022-12-24T00:18:58.591Z,2.03
2022-12-24T00:21:26.871Z,2.37
2022-12-24T00:23:55.698Z,2.10
2022-12-24T00:26:23.772Z,2.97
2022-12-24T00:28:52.004Z,2.80
2022-12-24T00:31:20.655Z,2.83
2022-12-24T00:33:49.477Z,2.53
2022-12-24T00:36:18.426Z,2.70
2022-12-24T00:38:47.127Z,2.73
2022-12-24T00:41:25.820Z,2.70
2022-12-24T00:44:09.903Z,2.97
2022-12-24T00:46:40.927Z,2.87
2022-12-24T00:49:10.877Z,3.00
2022-12-24T00:51:39.575Z,3.07
2022-12-24T00:54:08.304Z,2.53
2022-12-24T00:56:36.868Z,3.37
2022-12-24T00:59:04.901Z,2.87
2022-12-24T01:01:33.422Z,2.50
2022-12-24T01:04:15.781Z,2.77
2022-12-24T01:06:44.579Z,2.83
2022-12-24T01:09:13.212Z,2.70
2022-12-24T01:11:41.630Z,2.33
2022-12-24T01:14:09.707Z,3.00
2022-12-24T01:16:37.849Z,2.70
2022-12-24T01:19:06.047Z,3.23
2022-12-24T01:21:34.409Z,3.13
2022-12-24T01:24:02.863Z,2.87
2022-12-24T01:26:31.407Z,3.23
2022-12-24T01:29:00.602Z,2.97
2022-12-24T01:31:29.048Z,3.90
2022-12-24T01:33:57.100Z,3.17
2022-12-24T01:36:25.501Z,3.67
2022-12-24T01:38:53.909Z,2.97
2022-12-24T01:41:38.414Z,3.20
2022-12-24T01:44:35.733Z,2.67
2022-12-24T01:47:23.965Z,3.33
2022-12-24T01:50:01.237Z,2.73
2022-12-24T01:52:36.984Z,2.93
2022-12-24T01:55:15.825Z,2.70
2022-12-24T01:57:56.525Z,2.27
2022-12-24T02:00:25.146Z,2.83
2022-12-24T02:02:57.583Z,2.40
2022-12-24T02:06:09.946Z,2.37
2022-12-24T02:08:45.856Z,2.63
2022-12-24T02:11:34.131Z,2.77
2022-12-24T02:14:10.397Z,2.90
2022-12-24T02:17:00.975Z,2.20
2022-12-24T02:20:14.932Z,2.20
2022-12-24T02:26:15.805Z,2.70
2022-12-24T02:29:22.892Z,2.80
2022-12-24T02:32:29.752Z,2.47
2022-12-24T02:35:39.617Z,2.53
2022-12-24T02:38:28.385Z,2.70
2022-12-24T02:41:11.633Z,2.20
2022-12-24T02:43:44.072Z,2.33
2022-12-24T02:46:35.201Z,2.53
2022-12-24T02:49:03.873Z,2.20
2022-12-24T02:51:32.330Z,2.00
2022-12-24T02:54:00.561Z,2.03
2022-12-24T02:57:08.337Z,2.20
2022-12-24T03:00:09.749Z,2.10
2022-12-24T03:03:25.364Z,2.30
2022-12-24T03:06:36.536Z,2.10
2022-12-24T03:09:21.260Z,1.27
2022-12-24T03:12:03.910Z,1.80
2022-12-24T03:14:34.239Z,1.77
2022-12-24T03:17:04.859Z,2.07
2022-12-24T03:19:33.867Z,1.67
2022-12-24T03:22:05.900Z,2.00
2022-12-24T03:24:34.065Z,1.90
2022-12-24T03:27:02.603Z,1.93
2022-12-24T03:29:31.144Z,2.40
2022-12-24T03:32:04.146Z,1.70
2022-12-24T03:34:32.618Z,1.80
2022-12-24T03:37:00.856Z,1.80
2022-12-24T03:39:29.377Z,1.97
2022-12-24T03:41:57.762Z,2.00
2022-12-24T03:44:25.797Z,2.00
2022-12-24T03:46:54.182Z,2.10
2022-12-24T03:49:22.250Z,2.00
2022-12-24T03:51:50.674Z,2.17
2022-12-24T03:54:19.105Z,2.00
2022-12-24T03:56:47.522Z,1.90
2022-12-24T03:59:15.689Z,2.13
2022-12-24T04:01:44.199Z,1.60
2022-12-24T04:04:12.250Z,1.80
2022-12-24T04:06:40.340Z,2.33
2022-12-24T04:09:08.387Z,2.10
2022-12-24T04:11:36.641Z,2.10
2022-12-24T04:14:04.746Z,2.17
2022-12-24T04:16:32.980Z,1.80
2022-12-24T04:19:01.427Z,1.90
2022-12-24T04:21:29.856Z,1.80
2022-12-24T04:23:57.885Z,2.10
2022-12-24T04:26:26.040Z,2.13
2022-12-24T04:28:54.762Z,1.93
2022-12-24T04:31:23.200Z,2.20
2022-12-24T04:33:53.384Z,1.87
2022-12-24T04:36:22.350Z,2.40
2022-12-24T04:38:50.879Z,1.83
2022-12-24T04:41:24.643Z,2.17
2022-12-24T04:43:55.668Z,2.33
2022-12-24T04:46:30.501Z,2.77
2022-12-24T04:48:59.440Z,2.60
2022-12-24T04:51:28.801Z,2.27
2022-12-24T04:53:58.185Z,2.30
2022-12-24T04:56:30.411Z,2.20
2022-12-24T04:59:00.857Z,2.07
2022-12-24T05:01:33.259Z,2.07
2022-12-24T05:04:01.791Z,2.03
2022-12-24T05:06:34.004Z,2.17
2022-12-24T05:09:02.636Z,2.00
2022-12-24T05:11:31.466Z,2.40
2022-12-24T05:13:59.885Z,2.50
2022-12-24T05:16:28.366Z,2.13
2022-12-24T05:18:56.983Z,2.17
2022-12-24T05:21:26.277Z,2.00
2022-12-24T05:24:12.544Z,2.10
2022-12-24T05:26:45.091Z,2.13
2022-12-24T05:29:13.937Z,2.40
2022-12-24T05:31:44.004Z,1.83
2022-12-24T05:34:13.256Z,2.60
2022-12-24T05:36:41.657Z,2.23
2022-12-24T05:39:18.526Z,2.53
2022-12-24T05:41:47.297Z,2.30
2022-12-24T05:44:16.301Z,2.43
2022-12-24T05:46:45.263Z,2.20
2022-12-24T05:49:14.048Z,1.80
2022-12-24T05:54:10.963Z,2.23
2022-12-24T05:56:39.437Z,1.80
2022-12-24T05:59:07.934Z,2.23
2022-12-24T06:01:36.401Z,2.50
2022-12-24T06:04:06.131Z,2.00
2022-12-24T06:06:34.647Z,2.67
2022-12-24T06:09:03.064Z,2.20
2022-12-24T06:11:31.760Z,2.17
2022-12-24T06:13:59.845Z,2.33
2022-12-24T06:16:28.425Z,2.30
2022-12-24T06:18:56.917Z,2.23
2022-12-24T06:21:25.502Z,2.77
2022-12-24T06:23:54.081Z,2.50
2022-12-24T06:26:24.519Z,2.40
2022-12-24T06:28:53.331Z,2.20
2022-12-24T06:31:24.501Z,3.03
2022-12-24T06:33:53.850Z,3.23
2022-12-24T06:36:25.364Z,3.37
2022-12-24T06:38:55.283Z,2.40
2022-12-24T06:41:24.094Z,2.73
2022-12-24T06:43:54.218Z,3.33
2022-12-24T06:46:23.354Z,2.67
2022-12-24T06:48:52.037Z,2.70
2022-12-24T06:51:20.789Z,3.30
2022-12-24T06:53:50.892Z,2.50
2022-12-24T06:56:20.147Z,2.93
2022-12-24T06:58:48.699Z,2.43
2022-12-24T07:01:19.368Z,5.33
2022-12-24T07:03:48.630Z,2.70
2022-12-24T07:06:26.435Z,1.97
2022-12-24T07:08:55.415Z,1.93
2022-12-24T07:11:25.660Z,1.93
2022-12-24T07:13:53.998Z,2.00
2022-12-24T07:16:22.613Z,2.53
2022-12-24T07:18:51.158Z,2.33
2022-12-24T07:21:19.710Z,2.43
2022-12-24T07:23:48.170Z,2.37
2022-12-24T07:26:16.255Z,2.63
2022-12-24T07:28:44.807Z,1.87
2022-12-24T07:31:13.317Z,2.07
2022-12-24T07:33:41.461Z,2.03
2022-12-24T07:36:13.119Z,1.83
2022-12-24T07:38:41.575Z,2.17
2022-12-24T07:41:09.654Z,1.70
2022-12-24T07:43:37.910Z,1.53
2022-12-24T07:46:06.676Z,1.83
2022-12-24T07:48:35.972Z,1.90
2022-12-24T07:51:04.506Z,2.43
2022-12-24T07:53:33.273Z,3.07
2022-12-24T07:56:03.362Z,2.30
2022-12-24T07:58:34.531Z,2.00
2022-12-24T08:01:02.848Z,2.10
2022-12-24T08:03:31.058Z,2.07
2022-12-24T08:05:59.666Z,2.00
2022-12-24T08:08:27.883Z,3.53
2022-12-24T08:11:02.446Z,1.80
2022-12-24T08:13:34.712Z,2.03
2022-12-24T08:16:03.161Z,2.40
2022-12-24T08:18:31.354Z,1.47
2022-12-24T08:20:59.765Z,1.97
2022-12-24T08:23:28.057Z,2.67
2022-12-24T08:25:56.485Z,2.17
2022-12-24T08:28:24.967Z,2.30
2022-12-24T08:30:53.723Z,2.13
2022-12-24T08:33:22.480Z,2.20
2022-12-24T08:36:02.322Z,2.33
2022-12-24T08:38:31.200Z,2.60
2022-12-24T08:40:59.593Z,2.77
2022-12-24T08:43:28.125Z,2.07
2022-12-24T08:45:56.558Z,2.60
2022-12-24T08:48:24.947Z,2.37
2022-12-24T08:50:53.344Z,2.20
2022-12-24T08:53:21.748Z,2.30
2022-12-24T08:55:55.686Z,2.60
2022-12-24T08:58:24.555Z,2.50
2022-12-24T09:00:52.781Z,2.80
2022-12-24T09:03:27.413Z,2.70
2022-12-24T09:05:56.361Z,2.67
2022-12-24T09:08:24.813Z,3.03
2022-12-24T09:10:53.252Z,2.93
2022-12-24T09:13:21.798Z,2.57
2022-12-24T09:15:57.136Z,2.87
2022-12-24T09:18:32.065Z,2.60
2022-12-24T09:21:09.962Z,3.33
2022-12-24T09:23:40.677Z,2.50
2022-12-24T09:26:24.069Z,2.53
2022-12-24T09:28:53.704Z,2.80
2022-12-24T09:31:22.716Z,2.13
2022-12-24T09:33:53.017Z,2.47
2022-12-24T09:36:22.588Z,2.53
2022-12-24T09:38:51.452Z,2.60
2022-12-24T09:42:02.766Z,2.57
2022-12-24T09:45:17.733Z,2.40
2022-12-24T09:47:54.444Z,3.03
2022-12-24T09:50:56.087Z,3.03
2022-12-24T09:54:29.661Z,2.23
2022-12-24T09:57:03.877Z,2.60
2022-12-24T09:59:46.389Z,2.50
2022-12-24T10:02:21.410Z,2.77
2022-12-24T10:04:50.382Z,2.33
2022-12-24T10:07:21.689Z,2.67
2022-12-24T10:09:54.416Z,2.57
2022-12-24T10:12:49.280Z,2.33
2022-12-24T10:15:42.526Z,2.67
2022-12-24T10:18:49.281Z,1.97
2022-12-24T10:21:33.654Z,2.83
2022-12-24T10:24:12.853Z,2.77
2022-12-24T10:26:57.776Z,2.03
2022-12-24T10:29:30.995Z,1.80
2022-12-24T10:32:11.234Z,1.90
2022-12-24T10:34:51.391Z,1.53
2022-12-24T10:37:25.583Z,1.87
2022-12-24T10:39:54.382Z,1.70
2022-12-24T10:42:37.958Z,1.70
2022-12-24T10:45:08.872Z,1.77
2022-12-24T10:47:40.432Z,1.70
2022-12-24T10:50:42.536Z,1.87
2022-12-24T10:53:43.549Z,1.80
2022-12-24T10:56:14.604Z,1.87
2022-12-24T10:58:55.799Z,2.30
2022-12-24T11:01:46.764Z,1.60
2022-12-24T11:04:26.429Z,1.67
2022-12-24T11:07:06.301Z,1.77
2022-12-24T11:09:43.300Z,1.67
2022-12-24T11:12:40.342Z,1.77
2022-12-24T11:15:20.514Z,1.80
2022-12-24T11:17:59.302Z,1.50
2022-12-24T11:20:32.898Z,1.53
2022-12-24T11:23:03.043Z,2.00
2022-12-24T11:25:37.244Z,2.07
2022-12-24T11:28:32.292Z,1.77
2022-12-24T11:31:07.970Z,1.67
2022-12-24T11:38:08.752Z,1.70
2022-12-24T11:40:49.897Z,2.50
2022-12-24T11:44:03.458Z,2.77
2022-12-24T11:46:43.460Z,2.57
2022-12-24T11:49:29.693Z,2.33
2022-12-24T11:52:12.872Z,1.97
2022-12-24T11:55:15.513Z,2.53
2022-12-24T11:58:00.769Z,2.30
2022-12-24T12:00:29.948Z,3.70
2022-12-24T12:03:02.384Z,1.80
2022-12-24T12:05:34.660Z,2.10
2022-12-24T12:08:20.301Z,1.80
2022-12-24T12:10:53.776Z,1.40
2022-12-24T12:13:33.403Z,1.73
2022-12-24T12:16:58.566Z,2.07
2022-12-24T12:19:28.182Z,2.30
2022-12-24T12:21:56.691Z,1.90
2022-12-24T12:24:34.884Z,2.23
2022-12-24T12:27:26.314Z,2.27
2022-12-24T12:30:06.767Z,2.03
2022-12-24T12:32:43.288Z,2.00
2022-12-24T12:35:27.769Z,2.70
2022-12-24T12:38:10.423Z,2.13
2022-12-24T12:41:20.475Z,2.30
2022-12-24T12:44:22.073Z,2.17
2022-12-24T12:47:49.832Z,2.30
2022-12-24T12:50:35.379Z,2.20
2022-12-24T12:54:09.405Z,2.10
2022-12-24T12:56:39.967Z,1.80
2022-12-24T12:59:32.335Z,2.10
2022-12-24T13:02:18.938Z,1.67
2022-12-24T13:05:46.878Z,2.20
2022-12-24T13:08:33.706Z,2.63
2022-12-24T13:11:33.093Z,1.83
2022-12-24T13:14:18.039Z,1.80
2022-12-24T13:17:23.537Z,2.40
2022-12-24T13:20:12.040Z,1.90
2022-12-24T13:22:40.187Z,2.00
2022-12-24T13:25:22.547Z,2.40
2022-12-24T13:27:50.688Z,2.20
2022-12-24T13:30:41.097Z,2.40
2022-12-24T13:33:15.691Z,2.40
2022-12-24T13:36:21.231Z,2.57
2022-12-24T13:38:58.255Z,2.23
2022-12-24T13:41:41.480Z,2.80
2022-12-24T13:44:13.718Z,2.90
2022-12-24T13:47:14.183Z,2.40
2022-12-24T13:49:46.277Z,2.83
2022-12-24T13:52:15.455Z,2.90
2022-12-24T13:55:08.380Z,2.80
2022-12-24T13:57:55.915Z,2.80
2022-12-24T14:00:27.266Z,2.60
2022-12-24T14:03:15.443Z,3.10
2022-12-24T14:05:49.129Z,2.80
2022-12-24T14:08:30.344Z,2.97
2022-12-24T14:11:09.730Z,3.10
2022-12-24T14:13:40.569Z,2.97
2022-12-24T14:16:31.769Z,3.70
2022-12-24T14:19:37.064Z,3.27
2022-12-24T14:22:23.757Z,3.40
2022-12-24T14:24:58.850Z,3.47
2022-12-24T14:27:42.879Z,3.03
2022-12-24T14:30:22.270Z,3.40
2022-12-24T14:32:52.790Z,3.57
2022-12-24T14:35:32.236Z,3.33
2022-12-24T14:38:05.891Z,3.60
2022-12-24T14:40:40.353Z,3.00
2022-12-24T14:43:27.084Z,4.07
2022-12-24T14:46:09.008Z,2.63
2022-12-24T14:49:04.311Z,3.20
2022-12-24T14:52:03.058Z,2.77
2022-12-24T14:54:40.733Z,2.90
2022-12-24T14:57:11.850Z,2.90
2022-12-24T14:59:57.264Z,3.43
2022-12-24T15:02:48.624Z,2.73
2022-12-24T15:05:29.675Z,3.47
2022-12-24T15:08:05.443Z,2.73
2022-12-24T15:10:43.048Z,3.27
2022-12-24T15:13:40.841Z,3.07
2022-12-24T15:16:15.982Z,3.00
2022-12-24T15:18:50.928Z,3.10
2022-12-24T15:21:27.222Z,2.97
2022-12-24T15:23:55.516Z,2.80
2022-12-24T15:26:32.715Z,3.27
2022-12-24T15:29:03.985Z,3.30
2022-12-24T15:31:33.187Z,2.87
2022-12-24T15:34:01.972Z,3.40
2022-12-24T15:36:34.500Z,3.30
2022-12-24T15:39:10.125Z,3.20
2022-12-24T15:41:58.812Z,3.20
2022-12-24T15:44:27.973Z,2.93
2022-12-24T15:47:04.313Z,3.13
2022-12-24T15:49:34.697Z,3.00
2022-12-24T15:52:25.430Z,3.27
2022-12-24T15:54:58.026Z,3.37
2022-12-24T15:57:33.383Z,3.33
2022-12-24T16:00:05.466Z,3.60
2022-12-24T16:02:36.814Z,3.70
2022-12-24T16:05:23.546Z,3.87
2022-12-24T16:08:17.023Z,3.63
2022-12-24T16:11:11.294Z,3.97
2022-12-24T16:13:51.620Z,3.63
2022-12-24T16:16:31.935Z,3.40
2022-12-24T16:19:02.351Z,4.47
2022-12-24T16:21:41.561Z,3.47
2022-12-24T16:24:19.627Z,3.30
2022-12-24T16:26:48.435Z,3.10
2022-12-24T16:29:19.358Z,3.80
2022-12-24T16:31:56.554Z,4.20
2022-12-24T16:34:32.938Z,4.00
2022-12-24T16:37:01.662Z,3.97
2022-12-24T16:39:35.732Z,3.57
2022-12-24T16:42:23.045Z,3.50
2022-12-24T16:44:55.474Z,3.43
2022-12-24T16:47:33.643Z,3.37
2022-12-24T16:50:07.225Z,2.60
2022-12-24T16:52:35.728Z,3.53
2022-12-24T16:55:04.363Z,3.17
2022-12-24T16:57:35.056Z,4.27
2022-12-24T17:00:07.680Z,4.43
2022-12-24T17:02:36.062Z,4.40
2022-12-24T17:05:04.420Z,5.10
2022-12-24T17:07:32.940Z,4.33
2022-12-24T17:10:01.033Z,4.93
2022-12-24T17:12:29.502Z,4.30
2022-12-24T17:14:57.995Z,4.73
2022-12-24T17:17:29.738Z,3.60
2022-12-24T17:19:59.041Z,3.47
2022-12-24T17:22:28.376Z,3.87
2022-12-24T17:24:57.143Z,3.87
2022-12-24T17:27:25.342Z,3.10
2022-12-24T17:29:53.473Z,3.37
2022-12-24T17:32:21.895Z,3.53
2022-12-24T17:34:50.359Z,3.67
2022-12-24T17:37:18.908Z,3.90
2022-12-24T17:39:47.349Z,3.50
2022-12-24T17:42:15.435Z,3.13
2022-12-24T17:44:44.058Z,3.00
2022-12-24T17:47:12.281Z,4.00
2022-12-24T17:49:40.450Z,3.53
2022-12-24T17:52:08.963Z,3.70
2022-12-24T17:54:37.435Z,4.70
2022-12-24T17:57:05.462Z,3.93
2022-12-24T17:59:34.078Z,4.00
2022-12-24T18:02:02.853Z,4.47
2022-12-24T18:04:31.325Z,4.33
2022-12-24T18:07:02.686Z,3.40
2022-12-24T18:09:31.995Z,2.90
2022-12-24T18:12:00.936Z,2.80
2022-12-24T18:14:29.534Z,3.23
2022-12-24T18:16:57.966Z,3.23
2022-12-24T18:19:26.537Z,3.13
2022-12-24T18:21:54.771Z,3.00
2022-12-24T18:24:23.291Z,3.40
2022-12-24T18:26:51.711Z,3.30
2022-12-24T18:29:20.173Z,3.20
2022-12-24T18:31:49.012Z,3.70
2022-12-24T18:34:17.172Z,3.00
2022-12-24T18:36:51.154Z,2.77
2022-12-24T18:39:23.248Z,3.60
2022-12-24T18:41:51.701Z,3.07
2022-12-24T18:44:24.819Z,2.77
2022-12-24T18:46:54.443Z,3.17
2022-12-24T18:49:23.251Z,3.10
2022-12-24T18:51:51.685Z,3.00
2022-12-24T18:54:20.351Z,3.27
2022-12-24T18:56:52.408Z,3.37
2022-12-24T18:59:20.815Z,2.93
2022-12-24T19:01:49.430Z,3.67
2022-12-24T19:04:18.060Z,3.30
2022-12-24T19:06:52.681Z,3.33
2022-12-24T19:09:22.392Z,4.10
2022-12-24T19:11:51.156Z,5.00
2022-12-24T19:14:20.951Z,5.13
2022-12-24T19:16:49.246Z,4.77
2022-12-24T19:19:18.869Z,3.93
2022-12-24T19:21:47.043Z,3.63
2022-12-24T19:24:15.471Z,4.27
2022-12-24T19:26:43.958Z,3.97
2022-12-24T19:29:12.515Z,3.90
2022-12-24T19:31:44.317Z,3.53
2022-12-24T19:34:12.898Z,3.17
2022-12-24T19:36:41.337Z,3.57
2022-12-24T19:39:09.642Z,3.33
2022-12-24T19:41:37.866Z,3.23
2022-12-24T19:44:06.397Z,3.37
2022-12-24T19:46:37.070Z,3.47
2022-12-24T19:49:08.133Z,3.53
2022-12-24T19:51:36.686Z,4.03
2022-12-24T19:54:13.350Z,3.10
2022-12-24T19:56:45.509Z,3.97
2022-12-24T19:59:13.583Z,4.13
2022-12-24T20:01:42.122Z,3.40
2022-12-24T20:04:10.771Z,4.30
2022-12-24T20:06:39.530Z,4.70
2022-12-24T20:09:09.118Z,4.83
2022-12-24T20:11:37.667Z,4.40
2022-12-24T20:14:07.854Z,3.90
2022-12-24T20:16:36.737Z,5.10
2022-12-24T20:19:08.085Z,4.77
2022-12-24T20:21:38.006Z,4.73
2022-12-24T20:24:07.503Z,4.63
2022-12-24T20:26:36.360Z,4.53
2022-12-24T20:29:07.345Z,4.17
2022-12-24T20:31:36.320Z,4.63
2022-12-24T20:34:07.409Z,4.03
2022-12-24T20:36:37.212Z,3.87
2022-12-24T20:39:07.188Z,4.00
2022-12-24T20:41:35.436Z,3.77
2022-12-24T20:44:04.748Z,3.73
2022-12-24T20:46:33.827Z,3.83
2022-12-24T20:49:02.375Z,3.50
2022-12-24T20:51:30.885Z,3.77
2022-12-24T20:54:01.900Z,3.70
2022-12-24T20:56:31.654Z,3.97
2022-12-24T20:59:02.085Z,3.80
2022-12-24T21:01:31.413Z,4.10
2022-12-24T21:04:04.618Z,3.73
2022-12-24T21:06:33.798Z,3.67
2022-12-24T21:09:02.722Z,4.10
2022-12-24T21:11:48.518Z,4.10
2022-12-24T21:14:18.831Z,3.73
2022-12-24T21:16:47.555Z,4.50
2022-12-24T21:19:23.425Z,4.40
2022-12-24T21:21:52.372Z,4.03
2022-12-24T21:24:20.855Z,4.57
2022-12-24T21:26:49.497Z,3.93
2022-12-24T21:29:17.607Z,4.37
2022-12-24T21:31:46.406Z,4.43
2022-12-24T21:34:14.939Z,4.50
2022-12-24T21:36:43.089Z,4.57
2022-12-24T21:39:11.162Z,5.10
2022-12-24T21:41:40.412Z,4.80
2022-12-24T21:44:10.482Z,5.13
2022-12-24T21:46:38.920Z,5.40
2022-12-24T21:49:24.899Z,5.33
2022-12-24T21:51:53.523Z,5.07
2022-12-24T21:54:23.900Z,5.90
2022-12-24T21:57:25.637Z,5.70
2022-12-24T21:59:57.196Z,5.30
2022-12-24T22:02:27.867Z,7.13
2022-12-24T22:04:56.611Z,6.37
2022-12-24T22:07:57.298Z,5.47
2022-12-24T22:10:43.221Z,5.07
2022-12-24T22:13:11.333Z,5.47
2022-12-24T22:15:49.727Z,6.47
2022-12-24T22:18:21.350Z,6.77
2022-12-24T22:20:50.428Z,7.57
2022-12-24T22:23:20.521Z,6.90
2022-12-24T22:25:48.960Z,7.00
2022-12-24T22:28:17.400Z,5.97
2022-12-24T22:30:45.894Z,5.93
2022-12-24T22:33:14.310Z,5.60
2022-12-24T22:35:44.505Z,5.30
2022-12-24T22:38:12.915Z,5.00
2022-12-24T22:40:41.664Z,6.03
2022-12-24T22:43:10.097Z,5.17
2022-12-24T22:45:40.642Z,5.50
2022-12-24T22:48:10.341Z,5.30
2022-12-24T22:50:42.158Z,5.93
2022-12-24T22:53:10.820Z,5.20
2022-12-24T22:55:39.263Z,5.63
2022-12-24T22:58:07.746Z,5.63
2022-12-24T23:00:46.097Z,5.50
2022-12-24T23:03:15.022Z,5.50
2022-12-24T23:05:43.726Z,6.73
2022-12-24T23:08:13.753Z,6.33
2022-12-24T23:10:42.426Z,6.53
2022-12-24T23:13:34.250Z,6.40
2022-12-24T23:16:07.918Z,6.77
2022-12-24T23:18:36.529Z,5.93
2022-12-24T23:21:09.378Z,6.60
2022-12-24T23:23:37.827Z,6.73
2022-12-24T23:26:13.117Z,6.10
2022-12-24T23:28:42.162Z,5.70
2022-12-24T23:31:14.018Z,6.27
2022-12-24T23:33:42.974Z,6.40
2022-12-24T23:36:11.739Z,5.63
2022-12-24T23:38:40.273Z,6.53
2022-12-24T23:41:10.570Z,7.30
2022-12-24T23:43:39.407Z,6.27
2022-12-24T23:46:08.018Z,6.03
2022-12-24T23:48:37.644Z,6.27
2022-12-24T23:51:19.614Z,5.73
2022-12-24T23:53:47.788Z,6.00
2022-12-24T23:56:16.302Z,5.40
2022-12-24T23:58:45.839Z,5.37
